sensor_id;sensor_type;location;lat;lon;timestamp;P1;durP1;ratioP1;P2;durP2;ratioP2
18391;SDS011;9322;50.932;5.318;2022-07-23T00:00:11;16.20;;;8.50;;
18391;SDS011;9322;50.932;5.318;2022-07-23T00:02:37;19.53;;;8.67;;
18391;SDS011;9322;50.932;5.318;2022-07-23T00:05:03;16.33;;;8.70;;
18391;SDS011;9322;50.932;5.318;2022-07-23T00:07:29;17.77;;;8.40;;
18391;SDS011;9322;50.932;5.318;2022-07-23T00:09:54;17.40;;;9.33;;
18391;SDS011;9322;50.932;5.318;2022-07-23T00:12:20;20.93;;;9.43;;
18391;SDS011;9322;50.932;5.318;2022-07-23T00:14:46;19.90;;;8.57;;
18391;SDS011;9322;50.932;5.318;2022-07-23T00:17:12;17.67;;;9.47;;
18391;SDS011;9322;50.932;5.318;2022-07-23T00:19:37;18.27;;;8.60;;
18391;SDS011;9322;50.932;5.318;2022-07-23T00:22:03;15.93;;;8.73;;
18391;SDS011;9322;50.932;5.318;2022-07-23T00:24:29;18.23;;;8.20;;
18391;SDS011;9322;50.932;5.318;2022-07-23T00:26:54;20.20;;;8.60;;
18391;SDS011;9322;50.932;5.318;2022-07-23T00:29:20;17.27;;;8.10;;
18391;SDS011;9322;50.932;5.318;2022-07-23T00:31:46;15.17;;;8.50;;
18391;SDS011;9322;50.932;5.318;2022-07-23T00:34:11;18.23;;;8.87;;
18391;SDS011;9322;50.932;5.318;2022-07-23T00:36:37;18.63;;;8.57;;
18391;SDS011;9322;50.932;5.318;2022-07-23T00:39:03;15.87;;;8.77;;
18391;SDS011;9322;50.932;5.318;2022-07-23T00:41:29;15.03;;;8.83;;
18391;SDS011;9322;50.932;5.318;2022-07-23T00:43:54;15.97;;;8.60;;
18391;SDS011;9322;50.932;5.318;2022-07-23T00:46:20;18.50;;;9.33;;
18391;SDS011;9322;50.932;5.318;2022-07-23T00:48:48;20.83;;;9.17;;
18391;SDS011;9322;50.932;5.318;2022-07-23T00:51:16;19.23;;;8.90;;
18391;SDS011;9322;50.932;5.318;2022-07-23T00:53:43;18.73;;;9.43;;
18391;SDS011;9322;50.932;5.318;2022-07-23T00:56:09;14.73;;;8.53;;
18391;SDS011;9322;50.932;5.318;2022-07-23T00:58:35;18.43;;;9.47;;
18391;SDS011;9322;50.932;5.318;2022-07-23T01:01:04;20.00;;;9.47;;
18391;SDS011;9322;50.932;5.318;2022-07-23T01:03:29;17.23;;;9.13;;
18391;SDS011;9322;50.932;5.318;2022-07-23T01:05:55;16.73;;;8.93;;
18391;SDS011;9322;50.932;5.318;2022-07-23T01:08:21;15.57;;;8.70;;
18391;SDS011;9322;50.932;5.318;2022-07-23T01:10:48;19.67;;;9.53;;
18391;SDS011;9322;50.932;5.318;2022-07-23T01:13:14;19.07;;;10.03;;
18391;SDS011;9322;50.932;5.318;2022-07-23T01:15:39;18.60;;;10.07;;
18391;SDS011;9322;50.932;5.318;2022-07-23T01:18:06;22.13;;;10.03;;
18391;SDS011;9322;50.932;5.318;2022-07-23T01:20:33;18.27;;;9.47;;
18391;SDS011;9322;50.932;5.318;2022-07-23T01:22:59;20.27;;;9.83;;
18391;SDS011;9322;50.932;5.318;2022-07-23T01:25:25;24.77;;;10.03;;
18391;SDS011;9322;50.932;5.318;2022-07-23T01:27:51;24.73;;;10.23;;
18391;SDS011;9322;50.932;5.318;2022-07-23T01:30:18;17.00;;;9.33;;
18391;SDS011;9322;50.932;5.318;2022-07-23T01:32:44;18.53;;;10.07;;
18391;SDS011;9322;50.932;5.318;2022-07-23T01:35:10;19.07;;;9.50;;
18391;SDS011;9322;50.932;5.318;2022-07-23T01:37:36;22.93;;;10.27;;
18391;SDS011;9322;50.932;5.318;2022-07-23T01:40:03;17.70;;;9.53;;
18391;SDS011;9322;50.932;5.318;2022-07-23T01:42:29;16.90;;;9.70;;
18391;SDS011;9322;50.932;5.318;2022-07-23T01:44:55;20.87;;;10.50;;
18391;SDS011;9322;50.932;5.318;2022-07-23T01:47:21;19.73;;;10.27;;
18391;SDS011;9322;50.932;5.318;2022-07-23T01:49:47;22.33;;;9.50;;
18391;SDS011;9322;50.932;5.318;2022-07-23T01:52:12;23.87;;;10.90;;
18391;SDS011;9322;50.932;5.318;2022-07-23T01:54:38;20.97;;;11.17;;
18391;SDS011;9322;50.932;5.318;2022-07-23T01:57:04;23.07;;;10.53;;
18391;SDS011;9322;50.932;5.318;2022-07-23T01:59:30;22.33;;;10.90;;
18391;SDS011;9322;50.932;5.318;2022-07-23T02:01:56;18.73;;;10.30;;
18391;SDS011;9322;50.932;5.318;2022-07-23T02:04:22;21.30;;;9.93;;
18391;SDS011;9322;50.932;5.318;2022-07-23T02:06:49;19.00;;;10.37;;
18391;SDS011;9322;50.932;5.318;2022-07-23T02:09:16;24.40;;;10.07;;
18391;SDS011;9322;50.932;5.318;2022-07-23T02:11:42;18.17;;;10.13;;
18391;SDS011;9322;50.932;5.318;2022-07-23T02:14:07;20.47;;;10.57;;
18391;SDS011;9322;50.932;5.318;2022-07-23T02:16:33;19.80;;;10.93;;
18391;SDS011;9322;50.932;5.318;2022-07-23T02:18:59;24.47;;;11.20;;
18391;SDS011;9322;50.932;5.318;2022-07-23T02:21:25;21.27;;;10.97;;
18391;SDS011;9322;50.932;5.318;2022-07-23T02:23:51;21.10;;;10.67;;
18391;SDS011;9322;50.932;5.318;2022-07-23T02:26:16;23.10;;;10.33;;
18391;SDS011;9322;50.932;5.318;2022-07-23T02:28:42;25.43;;;11.47;;
18391;SDS011;9322;50.932;5.318;2022-07-23T02:31:08;20.33;;;11.00;;
18391;SDS011;9322;50.932;5.318;2022-07-23T02:33:34;20.67;;;11.17;;
18391;SDS011;9322;50.932;5.318;2022-07-23T02:36:00;17.43;;;10.30;;
18391;SDS011;9322;50.932;5.318;2022-07-23T02:38:26;22.17;;;11.30;;
18391;SDS011;9322;50.932;5.318;2022-07-23T02:40:51;19.27;;;11.10;;
18391;SDS011;9322;50.932;5.318;2022-07-23T02:43:17;27.17;;;11.27;;
18391;SDS011;9322;50.932;5.318;2022-07-23T02:45:43;23.40;;;11.40;;
18391;SDS011;9322;50.932;5.318;2022-07-23T02:48:08;24.43;;;11.67;;
18391;SDS011;9322;50.932;5.318;2022-07-23T02:50:34;19.93;;;11.10;;
18391;SDS011;9322;50.932;5.318;2022-07-23T02:53:00;23.93;;;12.10;;
18391;SDS011;9322;50.932;5.318;2022-07-23T02:55:25;25.73;;;12.90;;
18391;SDS011;9322;50.932;5.318;2022-07-23T02:57:51;23.53;;;12.53;;
18391;SDS011;9322;50.932;5.318;2022-07-23T03:00:17;26.73;;;11.67;;
18391;SDS011;9322;50.932;5.318;2022-07-23T03:02:43;22.87;;;12.17;;
18391;SDS011;9322;50.932;5.318;2022-07-23T03:05:09;28.60;;;13.03;;
18391;SDS011;9322;50.932;5.318;2022-07-23T03:07:35;32.23;;;12.57;;
18391;SDS011;9322;50.932;5.318;2022-07-23T03:10:01;24.20;;;12.77;;
18391;SDS011;9322;50.932;5.318;2022-07-23T03:12:26;25.30;;;11.43;;
18391;SDS011;9322;50.932;5.318;2022-07-23T03:14:52;26.80;;;13.17;;
18391;SDS011;9322;50.932;5.318;2022-07-23T03:17:18;24.83;;;12.10;;
18391;SDS011;9322;50.932;5.318;2022-07-23T03:19:43;25.30;;;12.40;;
18391;SDS011;9322;50.932;5.318;2022-07-23T03:22:09;24.03;;;11.77;;
18391;SDS011;9322;50.932;5.318;2022-07-23T03:24:35;20.37;;;11.47;;
18391;SDS011;9322;50.932;5.318;2022-07-23T03:27:19;21.00;;;11.17;;
18391;SDS011;9322;50.932;5.318;2022-07-23T03:29:45;23.93;;;12.17;;
18391;SDS011;9322;50.932;5.318;2022-07-23T03:32:11;21.70;;;11.13;;
18391;SDS011;9322;50.932;5.318;2022-07-23T03:34:37;25.60;;;12.67;;
18391;SDS011;9322;50.932;5.318;2022-07-23T03:37:02;26.90;;;12.47;;
18391;SDS011;9322;50.932;5.318;2022-07-23T03:39:28;23.73;;;12.17;;
18391;SDS011;9322;50.932;5.318;2022-07-23T03:41:54;28.00;;;12.43;;
18391;SDS011;9322;50.932;5.318;2022-07-23T03:44:19;22.50;;;12.03;;
18391;SDS011;9322;50.932;5.318;2022-07-23T03:46:45;21.37;;;11.93;;
18391;SDS011;9322;50.932;5.318;2022-07-23T03:49:11;25.50;;;12.27;;
18391;SDS011;9322;50.932;5.318;2022-07-23T03:51:36;27.37;;;12.00;;
18391;SDS011;9322;50.932;5.318;2022-07-23T03:54:02;18.67;;;11.37;;
18391;SDS011;9322;50.932;5.318;2022-07-23T03:56:28;21.77;;;12.27;;
18391;SDS011;9322;50.932;5.318;2022-07-23T03:58:54;26.33;;;12.77;;
18391;SDS011;9322;50.932;5.318;2022-07-23T04:01:19;25.10;;;12.67;;
18391;SDS011;9322;50.932;5.318;2022-07-23T04:03:45;26.63;;;13.50;;
18391;SDS011;9322;50.932;5.318;2022-07-23T04:06:11;30.30;;;13.50;;
18391;SDS011;9322;50.932;5.318;2022-07-23T04:08:37;26.13;;;13.77;;
18391;SDS011;9322;50.932;5.318;2022-07-23T04:11:03;32.70;;;14.33;;
18391;SDS011;9322;50.932;5.318;2022-07-23T04:13:29;24.33;;;13.63;;
18391;SDS011;9322;50.932;5.318;2022-07-23T04:15:54;24.43;;;13.37;;
18391;SDS011;9322;50.932;5.318;2022-07-23T04:18:20;24.13;;;13.27;;
18391;SDS011;9322;50.932;5.318;2022-07-23T04:20:49;23.50;;;13.27;;
18391;SDS011;9322;50.932;5.318;2022-07-23T04:23:16;29.93;;;14.03;;
18391;SDS011;9322;50.932;5.318;2022-07-23T04:25:42;24.10;;;12.93;;
18391;SDS011;9322;50.932;5.318;2022-07-23T04:28:08;24.43;;;13.53;;
18391;SDS011;9322;50.932;5.318;2022-07-23T04:30:34;23.57;;;13.03;;
18391;SDS011;9322;50.932;5.318;2022-07-23T04:32:59;29.57;;;13.17;;
18391;SDS011;9322;50.932;5.318;2022-07-23T04:35:25;21.63;;;12.60;;
18391;SDS011;9322;50.932;5.318;2022-07-23T04:37:51;28.57;;;11.53;;
18391;SDS011;9322;50.932;5.318;2022-07-23T04:40:17;24.87;;;12.10;;
18391;SDS011;9322;50.932;5.318;2022-07-23T04:42:43;22.57;;;10.53;;
18391;SDS011;9322;50.932;5.318;2022-07-23T04:45:09;22.10;;;11.23;;
18391;SDS011;9322;50.932;5.318;2022-07-23T04:47:35;16.93;;;10.30;;
18391;SDS011;9322;50.932;5.318;2022-07-23T04:50:00;15.57;;;9.80;;
18391;SDS011;9322;50.932;5.318;2022-07-23T04:52:26;21.73;;;9.63;;
18391;SDS011;9322;50.932;5.318;2022-07-23T04:54:52;17.87;;;9.80;;
18391;SDS011;9322;50.932;5.318;2022-07-23T04:57:17;28.63;;;10.13;;
18391;SDS011;9322;50.932;5.318;2022-07-23T04:59:43;16.97;;;9.10;;
18391;SDS011;9322;50.932;5.318;2022-07-23T05:02:09;16.17;;;7.97;;
18391;SDS011;9322;50.932;5.318;2022-07-23T05:04:34;11.97;;;6.90;;
18391;SDS011;9322;50.932;5.318;2022-07-23T05:07:00;12.50;;;6.28;;
18391;SDS011;9322;50.932;5.318;2022-07-23T05:09:26;14.18;;;5.72;;
18391;SDS011;9322;50.932;5.318;2022-07-23T05:11:52;14.18;;;5.75;;
18391;SDS011;9322;50.932;5.318;2022-07-23T05:14:17;8.77;;;5.30;;
18391;SDS011;9322;50.932;5.318;2022-07-23T05:16:43;12.77;;;6.25;;
18391;SDS011;9322;50.932;5.318;2022-07-23T05:19:09;10.93;;;5.50;;
18391;SDS011;9322;50.932;5.318;2022-07-23T05:21:34;11.85;;;5.38;;
18391;SDS011;9322;50.932;5.318;2022-07-23T05:24:00;8.82;;;5.25;;
18391;SDS011;9322;50.932;5.318;2022-07-23T05:26:26;10.13;;;5.20;;
18391;SDS011;9322;50.932;5.318;2022-07-23T05:28:51;8.77;;;5.68;;
18391;SDS011;9322;50.932;5.318;2022-07-23T05:31:17;10.07;;;5.55;;
18391;SDS011;9322;50.932;5.318;2022-07-23T05:33:43;11.98;;;6.18;;
18391;SDS011;9322;50.932;5.318;2022-07-23T05:36:09;10.00;;;6.18;;
18391;SDS011;9322;50.932;5.318;2022-07-23T05:38:35;10.43;;;5.80;;
18391;SDS011;9322;50.932;5.318;2022-07-23T05:41:01;9.38;;;6.05;;
18391;SDS011;9322;50.932;5.318;2022-07-23T05:43:27;9.65;;;5.70;;
18391;SDS011;9322;50.932;5.318;2022-07-23T05:45:53;11.05;;;5.70;;
18391;SDS011;9322;50.932;5.318;2022-07-23T05:48:19;8.95;;;5.72;;
18391;SDS011;9322;50.932;5.318;2022-07-23T05:50:46;7.15;;;5.57;;
18391;SDS011;9322;50.932;5.318;2022-07-23T05:53:12;8.65;;;5.55;;
18391;SDS011;9322;50.932;5.318;2022-07-23T05:55:38;9.55;;;5.97;;
18391;SDS011;9322;50.932;5.318;2022-07-23T05:58:04;15.15;;;6.50;;
18391;SDS011;9322;50.932;5.318;2022-07-23T06:00:30;12.35;;;6.10;;
18391;SDS011;9322;50.932;5.318;2022-07-23T06:02:56;10.73;;;5.90;;
18391;SDS011;9322;50.932;5.318;2022-07-23T06:05:22;9.32;;;6.20;;
18391;SDS011;9322;50.932;5.318;2022-07-23T06:07:48;10.07;;;6.78;;
18391;SDS011;9322;50.932;5.318;2022-07-23T06:10:14;8.23;;;6.38;;
18391;SDS011;9322;50.932;5.318;2022-07-23T06:12:39;10.43;;;6.60;;
18391;SDS011;9322;50.932;5.318;2022-07-23T06:15:06;12.93;;;7.00;;
18391;SDS011;9322;50.932;5.318;2022-07-23T06:17:32;11.90;;;6.75;;
18391;SDS011;9322;50.932;5.318;2022-07-23T06:19:58;11.18;;;7.20;;
18391;SDS011;9322;50.932;5.318;2022-07-23T06:22:24;10.43;;;6.70;;
18391;SDS011;9322;50.932;5.318;2022-07-23T06:24:50;10.75;;;6.85;;
18391;SDS011;9322;50.932;5.318;2022-07-23T06:27:16;10.93;;;6.20;;
18391;SDS011;9322;50.932;5.318;2022-07-23T06:29:42;7.68;;;6.25;;
18391;SDS011;9322;50.932;5.318;2022-07-23T06:32:08;8.10;;;6.47;;
18391;SDS011;9322;50.932;5.318;2022-07-23T06:34:34;7.95;;;6.13;;
18391;SDS011;9322;50.932;5.318;2022-07-23T06:36:59;9.65;;;6.47;;
18391;SDS011;9322;50.932;5.318;2022-07-23T06:39:25;7.95;;;6.18;;
18391;SDS011;9322;50.932;5.318;2022-07-23T06:41:51;11.93;;;6.88;;
18391;SDS011;9322;50.932;5.318;2022-07-23T06:44:17;7.88;;;6.60;;
18391;SDS011;9322;50.932;5.318;2022-07-23T06:46:43;10.13;;;6.35;;
18391;SDS011;9322;50.932;5.318;2022-07-23T06:49:11;9.73;;;6.15;;
18391;SDS011;9322;50.932;5.318;2022-07-23T06:51:36;14.68;;;6.90;;
18391;SDS011;9322;50.932;5.318;2022-07-23T06:54:02;9.82;;;6.95;;
18391;SDS011;9322;50.932;5.318;2022-07-23T06:56:29;10.77;;;6.90;;
18391;SDS011;9322;50.932;5.318;2022-07-23T06:58:55;9.60;;;7.32;;
18391;SDS011;9322;50.932;5.318;2022-07-23T07:01:21;12.15;;;7.53;;
18391;SDS011;9322;50.932;5.318;2022-07-23T07:03:46;9.25;;;7.32;;
18391;SDS011;9322;50.932;5.318;2022-07-23T07:06:12;11.73;;;7.90;;
18391;SDS011;9322;50.932;5.318;2022-07-23T07:08:38;10.98;;;7.78;;
18391;SDS011;9322;50.932;5.318;2022-07-23T07:11:04;11.93;;;7.97;;
18391;SDS011;9322;50.932;5.318;2022-07-23T07:13:30;14.23;;;7.57;;
18391;SDS011;9322;50.932;5.318;2022-07-23T07:15:55;9.70;;;7.90;;
18391;SDS011;9322;50.932;5.318;2022-07-23T07:18:22;14.57;;;7.78;;
18391;SDS011;9322;50.932;5.318;2022-07-23T07:20:48;14.70;;;8.00;;
18391;SDS011;9322;50.932;5.318;2022-07-23T07:23:14;11.32;;;7.82;;
18391;SDS011;9322;50.932;5.318;2022-07-23T07:25:40;10.35;;;7.50;;
18391;SDS011;9322;50.932;5.318;2022-07-23T07:28:05;13.48;;;7.95;;
18391;SDS011;9322;50.932;5.318;2022-07-23T07:30:31;15.48;;;7.70;;
18391;SDS011;9322;50.932;5.318;2022-07-23T07:32:59;9.80;;;7.15;;
18391;SDS011;9322;50.932;5.318;2022-07-23T07:35:25;9.88;;;8.07;;
18391;SDS011;9322;50.932;5.318;2022-07-23T07:37:50;10.82;;;7.38;;
18391;SDS011;9322;50.932;5.318;2022-07-23T07:40:16;13.35;;;7.93;;
18391;SDS011;9322;50.932;5.318;2022-07-23T07:42:49;14.15;;;6.68;;
18391;SDS011;9322;50.932;5.318;2022-07-23T07:45:17;12.03;;;7.90;;
18391;SDS011;9322;50.932;5.318;2022-07-23T07:47:44;9.25;;;7.80;;
18391;SDS011;9322;50.932;5.318;2022-07-23T07:50:10;10.63;;;7.95;;
18391;SDS011;9322;50.932;5.318;2022-07-23T07:52:36;13.18;;;7.63;;
18391;SDS011;9322;50.932;5.318;2022-07-23T07:55:03;8.93;;;6.30;;
18391;SDS011;9322;50.932;5.318;2022-07-23T07:57:29;11.73;;;7.70;;
18391;SDS011;9322;50.932;5.318;2022-07-23T07:59:55;11.18;;;6.38;;
18391;SDS011;9322;50.932;5.318;2022-07-23T08:02:20;11.13;;;5.60;;
18391;SDS011;9322;50.932;5.318;2022-07-23T08:04:46;10.80;;;6.25;;
18391;SDS011;9322;50.932;5.318;2022-07-23T08:07:13;10.05;;;6.55;;
18391;SDS011;9322;50.932;5.318;2022-07-23T08:09:40;9.70;;;6.38;;
18391;SDS011;9322;50.932;5.318;2022-07-23T08:12:05;9.65;;;6.53;;
18391;SDS011;9322;50.932;5.318;2022-07-23T08:14:31;9.88;;;6.30;;
18391;SDS011;9322;50.932;5.318;2022-07-23T08:16:57;10.40;;;6.55;;
18391;SDS011;9322;50.932;5.318;2022-07-23T08:19:23;11.55;;;6.03;;
18391;SDS011;9322;50.932;5.318;2022-07-23T08:21:48;9.65;;;6.10;;
18391;SDS011;9322;50.932;5.318;2022-07-23T08:24:14;9.88;;;5.97;;
18391;SDS011;9322;50.932;5.318;2022-07-23T08:26:40;8.80;;;6.00;;
18391;SDS011;9322;50.932;5.318;2022-07-23T08:29:06;8.63;;;6.38;;
18391;SDS011;9322;50.932;5.318;2022-07-23T08:31:31;10.90;;;6.57;;
18391;SDS011;9322;50.932;5.318;2022-07-23T08:33:58;12.38;;;6.65;;
18391;SDS011;9322;50.932;5.318;2022-07-23T08:36:24;10.43;;;7.32;;
18391;SDS011;9322;50.932;5.318;2022-07-23T08:38:53;8.77;;;5.38;;
18391;SDS011;9322;50.932;5.318;2022-07-23T08:41:19;9.13;;;5.75;;
18391;SDS011;9322;50.932;5.318;2022-07-23T08:43:46;8.35;;;5.90;;
18391;SDS011;9322;50.932;5.318;2022-07-23T08:46:12;9.65;;;5.47;;
18391;SDS011;9322;50.932;5.318;2022-07-23T08:48:39;11.50;;;6.47;;
18391;SDS011;9322;50.932;5.318;2022-07-23T08:51:05;10.23;;;6.80;;
18391;SDS011;9322;50.932;5.318;2022-07-23T08:53:32;8.18;;;5.88;;
18391;SDS011;9322;50.932;5.318;2022-07-23T08:56:01;7.85;;;6.63;;
18391;SDS011;9322;50.932;5.318;2022-07-23T08:58:27;10.43;;;6.20;;
18391;SDS011;9322;50.932;5.318;2022-07-23T09:00:53;13.05;;;5.85;;
18391;SDS011;9322;50.932;5.318;2022-07-23T09:03:26;11.55;;;5.57;;
18391;SDS011;9322;50.932;5.318;2022-07-23T09:05:57;8.63;;;5.60;;
18391;SDS011;9322;50.932;5.318;2022-07-23T09:11:02;10.32;;;5.80;;
18391;SDS011;9322;50.932;5.318;2022-07-23T09:16:06;8.13;;;6.32;;
18391;SDS011;9322;50.932;5.318;2022-07-23T09:23:43;7.05;;;4.72;;
18391;SDS011;9322;50.932;5.318;2022-07-23T09:26:17;9.88;;;5.20;;
18391;SDS011;9322;50.932;5.318;2022-07-23T09:28:58;10.00;;;5.30;;
18391;SDS011;9322;50.932;5.318;2022-07-23T09:31:24;7.78;;;4.97;;
18391;SDS011;9322;50.932;5.318;2022-07-23T09:34:05;9.23;;;4.80;;
18391;SDS011;9322;50.932;5.318;2022-07-23T09:36:33;8.02;;;4.88;;
18391;SDS011;9322;50.932;5.318;2022-07-23T09:38:58;9.27;;;5.28;;
18391;SDS011;9322;50.932;5.318;2022-07-23T09:41:24;8.10;;;4.68;;
18391;SDS011;9322;50.932;5.318;2022-07-23T09:43:54;8.75;;;5.00;;
18391;SDS011;9322;50.932;5.318;2022-07-23T09:46:29;11.20;;;4.90;;
18391;SDS011;9322;50.932;5.318;2022-07-23T09:48:55;11.75;;;5.68;;
18391;SDS011;9322;50.932;5.318;2022-07-23T09:51:22;9.65;;;5.13;;
18391;SDS011;9322;50.932;5.318;2022-07-23T09:53:57;9.30;;;4.85;;
18391;SDS011;9322;50.932;5.318;2022-07-23T09:56:23;5.80;;;4.47;;
18391;SDS011;9322;50.932;5.318;2022-07-23T09:58:50;10.30;;;4.82;;
18391;SDS011;9322;50.932;5.318;2022-07-23T10:01:17;6.68;;;4.68;;
18391;SDS011;9322;50.932;5.318;2022-07-23T10:03:45;7.35;;;4.10;;
18391;SDS011;9322;50.932;5.318;2022-07-23T10:06:12;6.43;;;4.05;;
18391;SDS011;9322;50.932;5.318;2022-07-23T10:08:40;8.13;;;4.38;;
18391;SDS011;9322;50.932;5.318;2022-07-23T10:11:07;9.07;;;4.07;;
18391;SDS011;9322;50.932;5.318;2022-07-23T10:13:36;6.57;;;4.10;;
18391;SDS011;9322;50.932;5.318;2022-07-23T10:16:14;8.45;;;4.60;;
18391;SDS011;9322;50.932;5.318;2022-07-23T10:18:40;4.95;;;3.60;;
18391;SDS011;9322;50.932;5.318;2022-07-23T10:21:07;7.00;;;3.42;;
18391;SDS011;9322;50.932;5.318;2022-07-23T10:23:35;6.85;;;3.90;;
18391;SDS011;9322;50.932;5.318;2022-07-23T10:29:13;3.63;;;2.67;;
18391;SDS011;9322;50.932;5.318;2022-07-23T10:37:30;5.25;;;2.97;;
18391;SDS011;9322;50.932;5.318;2022-07-23T10:40:08;5.93;;;2.70;;
18391;SDS011;9322;50.932;5.318;2022-07-23T10:42:45;5.47;;;3.03;;
18391;SDS011;9322;50.932;5.318;2022-07-23T10:45:22;3.47;;;2.63;;
18391;SDS011;9322;50.932;5.318;2022-07-23T10:47:52;3.85;;;2.42;;
18391;SDS011;9322;50.932;5.318;2022-07-23T10:50:28;5.13;;;2.85;;
18391;SDS011;9322;50.932;5.318;2022-07-23T10:58:00;2.95;;;2.50;;
18391;SDS011;9322;50.932;5.318;2022-07-23T11:00:28;3.95;;;2.67;;
18391;SDS011;9322;50.932;5.318;2022-07-23T11:03:05;2.88;;;2.50;;
18391;SDS011;9322;50.932;5.318;2022-07-23T11:05:50;3.10;;;2.30;;
18391;SDS011;9322;50.932;5.318;2022-07-23T11:08:17;5.13;;;2.20;;
18391;SDS011;9322;50.932;5.318;2022-07-23T11:10:51;3.85;;;1.85;;
18391;SDS011;9322;50.932;5.318;2022-07-23T11:13:30;4.28;;;1.90;;
18391;SDS011;9322;50.932;5.318;2022-07-23T11:37:05;2.35;;;1.38;;
18391;SDS011;9322;50.932;5.318;2022-07-23T11:39:32;1.88;;;1.38;;
18391;SDS011;9322;50.932;5.318;2022-07-23T11:41:59;3.47;;;1.20;;
18391;SDS011;9322;50.932;5.318;2022-07-23T11:49:27;1.92;;;1.20;;
18391;SDS011;9322;50.932;5.318;2022-07-23T11:52:09;2.30;;;1.27;;
18391;SDS011;9322;50.932;5.318;2022-07-23T11:54:52;1.67;;;1.48;;
18391;SDS011;9322;50.932;5.318;2022-07-23T11:57:19;1.35;;;1.13;;
18391;SDS011;9322;50.932;5.318;2022-07-23T11:59:46;2.40;;;1.02;;
18391;SDS011;9322;50.932;5.318;2022-07-23T12:02:15;4.07;;;1.40;;
18391;SDS011;9322;50.932;5.318;2022-07-23T12:04:42;1.45;;;1.33;;
18391;SDS011;9322;50.932;5.318;2022-07-23T12:12:54;4.25;;;1.60;;
18391;SDS011;9322;50.932;5.318;2022-07-23T12:15:25;1.70;;;1.60;;
18391;SDS011;9322;50.932;5.318;2022-07-23T12:17:58;1.52;;;1.38;;
18391;SDS011;9322;50.932;5.318;2022-07-23T12:20:29;3.67;;;1.70;;
18391;SDS011;9322;50.932;5.318;2022-07-23T12:22:57;2.17;;;1.60;;
18391;SDS011;9322;50.932;5.318;2022-07-23T12:25:25;6.13;;;1.80;;
18391;SDS011;9322;50.932;5.318;2022-07-23T12:28:05;3.05;;;1.65;;
18391;SDS011;9322;50.932;5.318;2022-07-23T12:30:41;2.15;;;1.55;;
18391;SDS011;9322;50.932;5.318;2022-07-23T12:33:12;2.55;;;1.90;;
18391;SDS011;9322;50.932;5.318;2022-07-23T12:35:41;3.63;;;1.75;;
18391;SDS011;9322;50.932;5.318;2022-07-23T12:38:13;2.40;;;1.70;;
18391;SDS011;9322;50.932;5.318;2022-07-23T12:40:43;3.33;;;1.88;;
18391;SDS011;9322;50.932;5.318;2022-07-23T12:43:12;2.10;;;1.90;;
18391;SDS011;9322;50.932;5.318;2022-07-23T12:45:44;3.90;;;1.92;;
18391;SDS011;9322;50.932;5.318;2022-07-23T12:48:15;2.40;;;2.20;;
18391;SDS011;9322;50.932;5.318;2022-07-23T12:50:48;3.65;;;1.70;;
18391;SDS011;9322;50.932;5.318;2022-07-23T12:53:33;3.95;;;2.00;;
18391;SDS011;9322;50.932;5.318;2022-07-23T12:56:14;3.85;;;2.08;;
18391;SDS011;9322;50.932;5.318;2022-07-23T12:58:55;7.75;;;2.10;;
18391;SDS011;9322;50.932;5.318;2022-07-23T13:01:36;2.63;;;2.00;;
18391;SDS011;9322;50.932;5.318;2022-07-23T13:04:13;5.65;;;2.45;;
18391;SDS011;9322;50.932;5.318;2022-07-23T13:06:44;4.82;;;2.95;;
18391;SDS011;9322;50.932;5.318;2022-07-23T13:09:17;4.43;;;2.40;;
18391;SDS011;9322;50.932;5.318;2022-07-23T13:11:44;7.35;;;5.05;;
18391;SDS011;9322;50.932;5.318;2022-07-23T13:14:12;7.43;;;5.00;;
18391;SDS011;9322;50.932;5.318;2022-07-23T13:16:38;3.33;;;2.40;;
18391;SDS011;9322;50.932;5.318;2022-07-23T13:19:05;5.80;;;3.15;;
18391;SDS011;9322;50.932;5.318;2022-07-23T13:21:31;4.72;;;2.83;;
18391;SDS011;9322;50.932;5.318;2022-07-23T13:23:57;4.10;;;3.15;;
18391;SDS011;9322;50.932;5.318;2022-07-23T13:26:24;6.00;;;2.33;;
18391;SDS011;9322;50.932;5.318;2022-07-23T13:28:50;9.80;;;2.85;;
18391;SDS011;9322;50.932;5.318;2022-07-23T13:31:16;4.95;;;2.50;;
18391;SDS011;9322;50.932;5.318;2022-07-23T13:33:42;3.05;;;2.22;;
18391;SDS011;9322;50.932;5.318;2022-07-23T13:36:08;6.25;;;2.55;;
18391;SDS011;9322;50.932;5.318;2022-07-23T13:38:34;4.03;;;2.42;;
18391;SDS011;9322;50.932;5.318;2022-07-23T13:41:00;4.57;;;2.78;;
18391;SDS011;9322;50.932;5.318;2022-07-23T13:43:28;6.20;;;2.67;;
18391;SDS011;9322;50.932;5.318;2022-07-23T13:45:54;4.07;;;2.30;;
18391;SDS011;9322;50.932;5.318;2022-07-23T13:48:20;5.57;;;2.60;;
18391;SDS011;9322;50.932;5.318;2022-07-23T13:50:46;5.55;;;2.60;;
18391;SDS011;9322;50.932;5.318;2022-07-23T13:53:14;6.47;;;2.60;;
18391;SDS011;9322;50.932;5.318;2022-07-23T13:55:44;8.57;;;2.63;;
18391;SDS011;9322;50.932;5.318;2022-07-23T13:58:10;5.68;;;2.53;;
18391;SDS011;9322;50.932;5.318;2022-07-23T14:00:37;2.88;;;2.38;;
18391;SDS011;9322;50.932;5.318;2022-07-23T14:03:05;5.53;;;2.22;;
18391;SDS011;9322;50.932;5.318;2022-07-23T14:05:31;3.92;;;2.45;;
18391;SDS011;9322;50.932;5.318;2022-07-23T14:07:56;4.32;;;2.50;;
18391;SDS011;9322;50.932;5.318;2022-07-23T14:10:23;4.85;;;2.55;;
18391;SDS011;9322;50.932;5.318;2022-07-23T14:12:49;4.10;;;2.90;;
18391;SDS011;9322;50.932;5.318;2022-07-23T14:15:17;3.55;;;2.92;;
18391;SDS011;9322;50.932;5.318;2022-07-23T14:17:44;3.47;;;2.72;;
18391;SDS011;9322;50.932;5.318;2022-07-23T14:20:11;5.38;;;2.80;;
18391;SDS011;9322;50.932;5.318;2022-07-23T14:22:37;4.68;;;2.63;;
18391;SDS011;9322;50.932;5.318;2022-07-23T14:25:04;8.32;;;2.83;;
18391;SDS011;9322;50.932;5.318;2022-07-23T14:27:31;4.45;;;2.88;;
18391;SDS011;9322;50.932;5.318;2022-07-23T14:29:57;5.03;;;3.10;;
18391;SDS011;9322;50.932;5.318;2022-07-23T14:32:23;3.15;;;2.33;;
18391;SDS011;9322;50.932;5.318;2022-07-23T14:34:49;3.38;;;2.60;;
18391;SDS011;9322;50.932;5.318;2022-07-23T14:37:15;5.28;;;2.80;;
18391;SDS011;9322;50.932;5.318;2022-07-23T14:39:41;2.85;;;2.55;;
18391;SDS011;9322;50.932;5.318;2022-07-23T14:42:08;4.22;;;2.85;;
18391;SDS011;9322;50.932;5.318;2022-07-23T14:44:35;6.13;;;2.53;;
18391;SDS011;9322;50.932;5.318;2022-07-23T14:47:02;4.63;;;2.55;;
18391;SDS011;9322;50.932;5.318;2022-07-23T14:49:30;5.10;;;2.90;;
18391;SDS011;9322;50.932;5.318;2022-07-23T14:51:59;4.47;;;2.88;;
18391;SDS011;9322;50.932;5.318;2022-07-23T14:54:25;7.65;;;3.00;;
18391;SDS011;9322;50.932;5.318;2022-07-23T14:56:52;5.00;;;2.90;;
18391;SDS011;9322;50.932;5.318;2022-07-23T14:59:19;6.18;;;2.88;;
18391;SDS011;9322;50.932;5.318;2022-07-23T15:01:46;9.55;;;3.15;;
18391;SDS011;9322;50.932;5.318;2022-07-23T15:04:11;3.55;;;2.80;;
18391;SDS011;9322;50.932;5.318;2022-07-23T15:06:37;4.88;;;3.30;;
18391;SDS011;9322;50.932;5.318;2022-07-23T15:09:04;13.05;;;3.47;;
18391;SDS011;9322;50.932;5.318;2022-07-23T15:11:30;4.72;;;3.10;;
18391;SDS011;9322;50.932;5.318;2022-07-23T15:13:58;6.15;;;3.10;;
18391;SDS011;9322;50.932;5.318;2022-07-23T15:16:26;4.90;;;2.70;;
18391;SDS011;9322;50.932;5.318;2022-07-23T15:18:52;5.45;;;3.17;;
18391;SDS011;9322;50.932;5.318;2022-07-23T15:21:18;7.53;;;3.28;;
18391;SDS011;9322;50.932;5.318;2022-07-23T15:23:44;6.95;;;3.22;;
18391;SDS011;9322;50.932;5.318;2022-07-23T15:26:10;4.68;;;3.17;;
18391;SDS011;9322;50.932;5.318;2022-07-23T15:28:36;5.10;;;2.75;;
18391;SDS011;9322;50.932;5.318;2022-07-23T15:31:01;4.65;;;3.00;;
18391;SDS011;9322;50.932;5.318;2022-07-23T15:33:27;5.55;;;2.90;;
18391;SDS011;9322;50.932;5.318;2022-07-23T15:35:53;4.22;;;2.78;;
18391;SDS011;9322;50.932;5.318;2022-07-23T15:38:21;5.97;;;3.40;;
18391;SDS011;9322;50.932;5.318;2022-07-23T15:40:47;6.88;;;4.05;;
18391;SDS011;9322;50.932;5.318;2022-07-23T15:43:13;5.13;;;2.55;;
18391;SDS011;9322;50.932;5.318;2022-07-23T15:45:39;4.25;;;2.65;;